Aviation Digital Data Service (ADDS)

Output produced by METARs form (1143 UTC 19 June 2019)
found at http://www.aviationweather.gov/metar/data/
 
EIME 191130Z 28011KT 9999 -RA FEW018 SCT035 BKN045 15/09 Q1009
TAF EIME 191100Z 1912/1921 28010KT 9999 FEW018 SCT040 
     TEMPO 1913/1918 -SHRA SCT020CB
       
EIKN 191130Z 25015KT 9999 FEW016 SCT024 BKN039 13/08 Q1008 NOSIG
TAF EIKN 191100Z 1912/2012 25010KT 9999 FEW020 BKN040 
     TEMPO 1915/2012 -SHRA SCT018CB
       
EICK 191130Z 25009KT 210V280 9999 SCT028 BKN060 16/07 Q1010 NOSIG
TAF EICK 191100Z 1912/2012 28010KT 9999 FEW018 SCT040 
     TEMPO 1912/1918 -SHRA SCT018CB 
     PROB30 
     TEMPO 2002/2005 4000 BR
       
EIDL 191130Z 23017KT 9999 SCT011 BKN049 13/11 Q1007
TAF EIDL 191100Z 1912/1921 23014KT 9999 FEW012 BKN025 
     TEMPO 1912/1918 -SHRA SCT018CB 
     PROB40 
     TEMPO 1912/1915 23015G25KT
       
EIDW 191130Z 28010KT 9999 FEW023 BKN042 16/09 Q1009 NOSIG
TAF EIDW 191100Z 1912/2012 26010KT 9999 FEW018 BKN030 
     PROB30 
     TEMPO 1915/1919 -SHRA SCT020CB
       
EIKY 191100Z 27005KT 240V330 9999 -RA FEW018CB SCT027 14/11 Q1011
TAF EIKY 191100Z 1912/1921 27010KT 9999 FEW025 BKN030 
     TEMPO 1912/1918 -SHRA SCT018CB 
     PROB30 
     TEMPO 1912/1915 4000 SHRA BKN013 
     PROB30 
     TEMPO 1915/1918 27015G25KT
       
EINN 191130Z 26012KT 9999 SCT025 BKN050 15/10 Q1010 NOSIG
TAF EINN 191100Z 1912/2012 28010KT 9999 SCT012 BKN040 
     TEMPO 1912/2009 -SHRA SCT018CB
       
EISG 191130Z 25010KT 9999 FEW026 BKN038 14/10 Q1008
TAF EISG 191100Z 1912/1921 26012KT 9999 SCT017 BKN030 
     TEMPO 1914/1918 -SHRA SCT020CB
       
EIWF 191100Z 24007KT 220V280 9999 SCT030 SCT048 ///// Q1010
TAF EIWF 191100Z 1912/1921 24008KT 9999 FEW030 
     TEMPO 1913/1916 23015G26KT